Chambery, France

11:52 AM CET on February 07, 2016 (GMT +0100)
Aix-les-Bains | | Change Station
CLOSE
Current Station
Airport
Location: Chambery,
Elevation: 771 ft
Nearby Weather Stations

Elev 771 ft 45.64 °N, 5.88 °E | Updated 22 minutes ago

Rain
Rain
45 °F
Feels Like 41 °F
N
7
Wind Variable Wind from North

Today
High -- | Low -- °F
--% Chance of Precip.
Yesterday
High -- | Low -- °F
Precip. -- in
Pressure 29.83 in
Visibility 3.1 miles
Clouds Few 1600 ft
Mostly Cloudy 2300 ft
Overcast 8000 ft
Windchill 41 °F
Dew Point 39 °F
Humidity 81%
Rainfall 0.00 in
Snow Depth Not available.
7:51 AM 5:50 PM
Waning Crescent, 2% visible
METAR LFLB 071030Z 36006KT 300V050 5000 RA FEW016 BKN023 OVC080 07/04 Q1010 NOSIG
Pressure 29.83 in
Visibility 3.1 miles
Clouds Few 1600 ft
Mostly Cloudy 2300 ft
Overcast 8000 ft
Windchill 41 °F
Dew Point 39 °F
Humidity 81%
Rainfall 0.00 in
Snow Depth Not available.
7:51 AM 5:50 PM
Waning Crescent, 2% visible
METAR LFLB 071030Z 36006KT 300V050 5000 RA FEW016 BKN023 OVC080 07/04 Q1010 NOSIG

10-Day Weather Forecast

Almanac

Astronomy

Feb. 07, 2016 Rise Set
Actual Time
Civil Twilight
Nautical Twilight
Astronomical Twilight
Moon
Length of Visible Light
Length of Day
Tomorrow will be .
, % of the Moon is Illuminated

Today's Extremes

Country Highs Country Lows

Community

WunderPhotos

Upload Photos

1,891,171 photos uploaded!

WunderBlog® & News

Nearby

Air Quality

  Air Quality AQ Index Pollutant
Not available.

Snow Depth

Station Depth Elevation

Earthquake Activity

City Distance Mag. Time & Date
Minimum magnitude displayed is 2.5.

Coastal Water Temperatures

Place Temperature

Stations

Nearby Weather Stations

Station Location Temp. Windchill Dew Point Humidity Wind Precip. Elev Updated Type